createdAt,value
2023-05-17T00:01:48.088Z,74.57
2023-05-17T00:04:14.581Z,74.04
2023-05-17T00:06:41.230Z,74.07
2023-05-17T00:09:07.760Z,74.43
2023-05-17T00:11:34.272Z,74.42
2023-05-17T00:14:00.761Z,74.52
2023-05-17T00:16:27.246Z,74.62
2023-05-17T00:18:53.774Z,74.39
2023-05-17T00:21:20.362Z,74.49
2023-05-17T00:23:46.792Z,74.70
2023-05-17T00:26:13.913Z,74.80
2023-05-17T00:28:40.397Z,74.52
2023-05-17T00:31:06.898Z,75.07
2023-05-17T00:33:33.434Z,75.48
2023-05-17T00:35:59.905Z,75.76
2023-05-17T00:38:26.434Z,75.92
2023-05-17T00:40:54.092Z,76.05
2023-05-17T00:43:20.681Z,76.11
2023-05-17T00:45:48.487Z,75.92
2023-05-17T00:48:15.431Z,75.75
2023-05-17T00:50:42.180Z,76.06
2023-05-17T00:53:09.366Z,76.14
2023-05-17T00:55:36.014Z,76.12
2023-05-17T00:58:03.698Z,76.04
2023-05-17T01:00:30.703Z,75.83
2023-05-17T01:02:57.216Z,76.17
2023-05-17T01:05:23.724Z,76.27
2023-05-17T01:07:50.201Z,76.36
2023-05-17T01:10:16.749Z,76.08
2023-05-17T01:12:55.014Z,76.00
2023-05-17T01:15:36.396Z,75.75
2023-05-17T01:18:10.594Z,75.50
2023-05-17T01:20:38.527Z,75.12
2023-05-17T01:23:42.528Z,75.70
2023-05-17T01:26:21.622Z,75.53
2023-05-17T01:28:53.294Z,75.46
2023-05-17T01:31:20.400Z,75.80
2023-05-17T01:33:47.036Z,75.73
2023-05-17T01:36:13.591Z,75.77
2023-05-17T01:38:40.012Z,75.40
2023-05-17T01:41:27.266Z,75.54
2023-05-17T01:44:16.601Z,75.44
2023-05-17T01:46:43.822Z,75.62
2023-05-17T01:49:24.800Z,75.80
2023-05-17T01:52:06.427Z,76.30
2023-05-17T01:54:42.449Z,75.20
2023-05-17T01:57:09.981Z,73.96
2023-05-17T01:59:38.403Z,70.68
2023-05-17T02:02:09.433Z,70.54
2023-05-17T02:04:36.404Z,69.68
2023-05-17T02:07:03.427Z,69.29
2023-05-17T02:09:29.974Z,69.32
2023-05-17T02:11:56.993Z,69.37
2023-05-17T02:14:23.425Z,68.69
2023-05-17T02:16:50.124Z,67.72
2023-05-17T02:19:16.701Z,67.65
2023-05-17T02:21:43.183Z,66.41
2023-05-17T02:24:09.619Z,66.18
2023-05-17T02:26:36.390Z,65.19
2023-05-17T02:29:02.814Z,64.04
2023-05-17T02:31:29.779Z,64.58
2023-05-17T02:33:56.260Z,64.74
2023-05-17T02:36:22.867Z,64.44
2023-05-17T02:38:49.295Z,63.57
2023-05-17T02:41:15.820Z,62.88
2023-05-17T02:43:42.358Z,63.07
2023-05-17T02:46:08.922Z,63.04
2023-05-17T02:48:35.683Z,63.26
2023-05-17T02:51:02.114Z,62.39
2023-05-17T02:53:28.594Z,63.07
2023-05-17T02:55:58.002Z,62.36
2023-05-17T02:58:25.332Z,62.81
2023-05-17T03:00:51.894Z,62.70
2023-05-17T03:03:18.510Z,63.98
2023-05-17T03:05:45.017Z,64.42
2023-05-17T03:08:11.411Z,64.03
2023-05-17T03:10:37.820Z,64.65
2023-05-17T03:13:04.271Z,65.54
2023-05-17T03:15:31.002Z,65.67
2023-05-17T03:17:57.660Z,64.24
2023-05-17T03:20:24.444Z,63.86
2023-05-17T03:22:50.852Z,64.32
2023-05-17T03:25:17.368Z,63.56
2023-05-17T03:27:43.851Z,62.92
2023-05-17T03:30:10.563Z,62.92
2023-05-17T03:32:39.706Z,63.44
2023-05-17T03:35:06.908Z,63.46
2023-05-17T03:37:33.400Z,63.31
2023-05-17T03:39:59.839Z,62.48
2023-05-17T03:42:26.259Z,62.71
2023-05-17T03:44:54.302Z,63.83
2023-05-17T03:47:23.756Z,63.42
2023-05-17T03:49:50.458Z,63.32
2023-05-17T03:52:16.894Z,63.10
2023-05-17T03:54:43.351Z,62.80
2023-05-17T03:57:09.828Z,63.98
2023-05-17T03:59:36.257Z,63.88
2023-05-17T04:02:02.727Z,64.10
2023-05-17T04:04:29.182Z,63.43
2023-05-17T04:06:55.687Z,63.93
2023-05-17T04:09:22.084Z,63.39
2023-05-17T04:11:48.533Z,63.04
2023-05-17T04:14:15.138Z,63.09
2023-05-17T04:16:41.603Z,62.84
2023-05-17T04:19:08.135Z,63.26
2023-05-17T04:21:34.651Z,64.31
2023-05-17T04:24:01.499Z,64.44
2023-05-17T04:26:29.307Z,62.81
2023-05-17T04:28:55.719Z,63.56
2023-05-17T04:31:22.384Z,63.01
2023-05-17T04:33:48.988Z,63.58
2023-05-17T04:36:15.853Z,63.88
2023-05-17T04:38:42.578Z,63.77
2023-05-17T04:41:09.494Z,64.00
2023-05-17T04:43:36.328Z,63.30
2023-05-17T04:46:02.793Z,63.39
2023-05-17T04:48:31.136Z,63.36
2023-05-17T04:51:00.657Z,62.75
2023-05-17T04:53:27.131Z,61.07
2023-05-17T04:55:53.603Z,60.10
2023-05-17T04:58:20.139Z,60.45
2023-05-17T05:00:46.626Z,61.05
2023-05-17T05:03:13.302Z,61.92
2023-05-17T05:05:39.788Z,60.62
2023-05-17T05:08:06.216Z,60.89
2023-05-17T05:10:32.813Z,61.31
2023-05-17T05:12:59.316Z,60.28
2023-05-17T05:15:25.785Z,60.25
2023-05-17T05:17:52.687Z,60.68
2023-05-17T05:20:19.287Z,60.34
2023-05-17T05:22:45.747Z,59.49
2023-05-17T05:25:12.220Z,59.44
2023-05-17T05:27:38.800Z,58.73
2023-05-17T05:30:05.839Z,58.01
2023-05-17T05:32:32.340Z,58.17
2023-05-17T05:34:58.744Z,59.20
2023-05-17T05:37:25.495Z,58.97
2023-05-17T05:39:51.944Z,58.27
2023-05-17T05:42:20.175Z,58.21
2023-05-17T05:44:46.673Z,58.82
2023-05-17T05:47:13.151Z,60.03
2023-05-17T05:49:39.605Z,61.80
2023-05-17T05:52:06.269Z,62.39
2023-05-17T05:54:32.691Z,63.68
2023-05-17T05:57:00.725Z,62.34
2023-05-17T05:59:27.585Z,62.57
2023-05-17T06:01:54.014Z,61.38
2023-05-17T06:04:22.744Z,62.13
2023-05-17T06:06:56.403Z,60.79
2023-05-17T06:09:22.923Z,59.56
2023-05-17T06:11:52.663Z,60.08
2023-05-17T06:14:19.091Z,59.09
2023-05-17T06:16:48.146Z,58.68
2023-05-17T06:19:17.629Z,57.61
2023-05-17T06:21:44.222Z,58.07
2023-05-17T06:24:10.705Z,58.58
2023-05-17T06:26:37.170Z,56.94
2023-05-17T06:29:03.881Z,57.38
2023-05-17T06:31:30.371Z,56.79
2023-05-17T06:33:56.856Z,56.82
2023-05-17T06:36:24.362Z,56.12
2023-05-17T06:38:51.824Z,56.04
2023-05-17T06:41:18.285Z,56.46
2023-05-17T06:43:45.790Z,56.08
2023-05-17T06:46:12.290Z,55.54
2023-05-17T06:48:39.009Z,56.39
2023-05-17T06:51:05.625Z,56.50
2023-05-17T06:53:32.131Z,57.44
2023-05-17T06:55:58.596Z,58.04
2023-05-17T06:58:25.053Z,57.91
2023-05-17T07:00:51.513Z,58.52
2023-05-17T07:03:18.453Z,58.74
2023-05-17T07:05:44.975Z,58.49
2023-05-17T07:08:11.453Z,57.38
2023-05-17T07:10:37.866Z,56.52
2023-05-17T07:13:04.304Z,56.59
2023-05-17T07:15:30.928Z,56.24
2023-05-17T07:17:59.229Z,56.50
2023-05-17T07:20:25.750Z,55.61
2023-05-17T07:22:52.327Z,56.09
2023-05-17T07:25:20.966Z,54.45
2023-05-17T07:27:47.442Z,52.93
2023-05-17T07:30:16.281Z,51.89
2023-05-17T07:32:42.743Z,53.56
2023-05-17T07:35:09.235Z,52.57
2023-05-17T07:37:35.988Z,52.73
2023-05-17T07:40:02.503Z,51.12
2023-05-17T07:42:29.044Z,51.57
2023-05-17T07:44:55.477Z,52.22
2023-05-17T07:47:21.946Z,53.53
2023-05-17T07:49:48.488Z,53.84
2023-05-17T07:52:14.882Z,53.70
2023-05-17T07:54:41.272Z,54.33
2023-05-17T07:57:07.701Z,54.48
2023-05-17T07:59:34.177Z,54.27
2023-05-17T08:02:00.732Z,52.36
2023-05-17T08:04:27.228Z,52.19
2023-05-17T08:06:55.316Z,50.53
2023-05-17T08:09:21.755Z,48.69
2023-05-17T08:11:48.183Z,48.60
2023-05-17T08:14:15.645Z,47.64
2023-05-17T08:16:42.988Z,46.20
2023-05-17T08:19:13.298Z,47.39
2023-05-17T08:21:41.108Z,45.23
2023-05-17T08:24:08.328Z,45.62
2023-05-17T08:26:35.188Z,47.34
2023-05-17T08:29:02.524Z,47.53
2023-05-17T08:31:29.283Z,47.53
2023-05-17T08:33:55.768Z,49.45
2023-05-17T08:36:22.555Z,43.50
2023-05-17T08:38:49.184Z,43.61
2023-05-17T08:41:16.126Z,42.92
2023-05-17T08:43:44.056Z,42.45
2023-05-17T08:46:10.633Z,43.08
2023-05-17T08:48:41.992Z,43.29
2023-05-17T08:51:10.674Z,42.08
2023-05-17T08:53:37.137Z,43.52
2023-05-17T08:56:05.317Z,42.46
2023-05-17T08:58:48.150Z,40.67
2023-05-17T09:01:23.521Z,41.38
2023-05-17T09:03:51.588Z,40.92
2023-05-17T09:06:20.745Z,40.27
2023-05-17T09:08:47.338Z,42.51
2023-05-17T09:11:33.163Z,39.39
2023-05-17T09:14:06.808Z,39.70
2023-05-17T09:16:35.279Z,38.80
2023-05-17T09:19:04.681Z,40.69
2023-05-17T09:21:32.356Z,38.29
2023-05-17T09:24:07.084Z,40.99
2023-05-17T09:26:38.399Z,40.11
2023-05-17T09:29:08.808Z,39.18
2023-05-17T09:31:35.307Z,38.67
2023-05-17T09:34:02.428Z,40.27
2023-05-17T09:36:29.100Z,39.32
2023-05-17T09:39:01.640Z,39.11
2023-05-17T09:41:30.271Z,37.68
2023-05-17T09:44:03.973Z,38.42
2023-05-17T09:46:38.794Z,39.51
2023-05-17T09:49:05.452Z,39.94
2023-05-17T09:51:36.692Z,37.71
2023-05-17T09:54:03.696Z,38.88
2023-05-17T09:56:31.318Z,38.70
2023-05-17T09:59:00.780Z,38.01
2023-05-17T10:01:29.180Z,38.12
2023-05-17T10:03:58.584Z,35.34
2023-05-17T10:06:38.967Z,36.47
2023-05-17T10:09:13.742Z,35.53
2023-05-17T10:11:41.539Z,36.97
2023-05-17T10:14:32.415Z,37.22
2023-05-17T10:16:59.219Z,35.52
2023-05-17T10:19:26.094Z,36.52
2023-05-17T10:21:53.421Z,37.54
2023-05-17T10:24:20.849Z,36.86
2023-05-17T10:26:49.979Z,36.89
2023-05-17T10:29:16.976Z,37.72
2023-05-17T10:31:43.574Z,36.54
2023-05-17T10:34:11.655Z,37.92
2023-05-17T10:36:38.868Z,38.25
2023-05-17T10:39:07.914Z,39.30
2023-05-17T10:41:35.424Z,38.15
2023-05-17T10:44:07.934Z,37.84
2023-05-17T10:46:34.541Z,37.29
2023-05-17T10:49:01.614Z,38.97
2023-05-17T10:51:37.676Z,39.22
2023-05-17T10:54:05.271Z,40.06
2023-05-17T10:56:32.433Z,38.46
2023-05-17T10:59:22.056Z,37.97
2023-05-17T11:01:59.910Z,38.39
2023-05-17T11:04:33.402Z,39.87
2023-05-17T11:07:18.711Z,37.03
2023-05-17T11:09:56.227Z,38.37
2023-05-17T11:12:42.933Z,36.88
2023-05-17T11:15:11.434Z,38.55
2023-05-17T11:17:43.989Z,38.01
2023-05-17T11:20:31.412Z,37.79
2023-05-17T11:23:13.134Z,38.22
2023-05-17T11:25:40.604Z,38.35
2023-05-17T11:28:18.339Z,38.03
2023-05-17T11:30:51.174Z,37.50
2023-05-17T11:33:29.825Z,37.84
2023-05-17T11:36:04.227Z,38.30
2023-05-17T11:38:32.533Z,38.25
2023-05-17T11:41:26.581Z,38.68
2023-05-17T11:43:54.472Z,36.28
2023-05-17T11:46:22.846Z,36.96
2023-05-17T11:48:53.479Z,37.44
2023-05-17T11:51:22.859Z,38.10
2023-05-17T11:53:51.253Z,37.86
2023-05-17T11:56:24.047Z,38.86
2023-05-17T11:58:54.031Z,35.88
2023-05-17T12:01:20.544Z,36.59
2023-05-17T12:03:49.593Z,37.71
2023-05-17T12:06:17.342Z,35.96
2023-05-17T12:08:45.321Z,37.27
2023-05-17T12:11:14.709Z,37.53
2023-05-17T12:13:42.556Z,36.64
2023-05-17T12:16:13.269Z,36.84
2023-05-17T12:18:51.571Z,36.30
2023-05-17T12:21:19.278Z,37.65
2023-05-17T12:23:49.577Z,35.87
2023-05-17T12:26:21.768Z,35.22
2023-05-17T12:28:56.246Z,37.13
2023-05-17T12:31:29.663Z,34.96
2023-05-17T12:33:56.533Z,35.38
2023-05-17T12:36:24.078Z,34.40
2023-05-17T12:38:50.827Z,35.47
2023-05-17T12:41:17.955Z,37.36
2023-05-17T12:43:45.748Z,33.95
2023-05-17T12:46:13.770Z,33.38
2023-05-17T12:48:42.785Z,33.26
2023-05-17T12:51:13.420Z,35.26
2023-05-17T12:53:42.212Z,34.91
2023-05-17T12:56:09.344Z,33.24
2023-05-17T12:58:35.892Z,33.48
2023-05-17T13:01:03.455Z,35.26
2023-05-17T13:03:30.881Z,33.62
2023-05-17T13:06:02.204Z,34.10
2023-05-17T13:08:28.649Z,33.19
2023-05-17T13:11:12.324Z,34.11
2023-05-17T13:13:39.041Z,35.31
2023-05-17T13:16:06.040Z,32.91
2023-05-17T13:18:47.698Z,32.40
2023-05-17T13:21:14.293Z,33.54
2023-05-17T13:23:44.949Z,33.42
2023-05-17T13:26:12.832Z,31.95
2023-05-17T13:28:40.430Z,32.37
2023-05-17T13:31:06.853Z,33.85
2023-05-17T13:33:33.593Z,31.71
2023-05-17T13:36:00.237Z,32.44
2023-05-17T13:38:26.777Z,33.68
2023-05-17T13:40:53.220Z,32.93
2023-05-17T13:43:19.891Z,31.11
2023-05-17T13:45:47.171Z,33.09
2023-05-17T13:48:13.766Z,32.59
2023-05-17T13:50:40.895Z,32.15
2023-05-17T13:53:07.447Z,32.36
2023-05-17T13:55:34.397Z,32.15
2023-05-17T13:58:00.834Z,31.70
2023-05-17T14:00:27.417Z,30.97
2023-05-17T14:02:54.187Z,33.12
2023-05-17T14:05:20.811Z,32.27
2023-05-17T14:07:47.281Z,33.00
2023-05-17T14:10:13.805Z,32.07
2023-05-17T14:12:41.017Z,33.56
2023-05-17T14:15:09.011Z,33.62
2023-05-17T14:17:35.566Z,31.65
2023-05-17T14:20:03.097Z,32.74
2023-05-17T14:22:29.552Z,31.12
2023-05-17T14:24:56.030Z,33.19
2023-05-17T14:27:22.599Z,32.52
2023-05-17T14:29:49.033Z,32.93
2023-05-17T14:32:15.575Z,32.31
2023-05-17T14:34:42.011Z,32.02
2023-05-17T14:37:08.563Z,34.02
2023-05-17T14:39:34.987Z,35.54
2023-05-17T14:42:02.198Z,32.13
2023-05-17T14:44:29.642Z,33.13
2023-05-17T14:46:56.145Z,32.47
2023-05-17T14:49:22.749Z,32.37
2023-05-17T14:51:49.209Z,32.83
2023-05-17T14:54:18.389Z,34.69
2023-05-17T14:56:45.358Z,34.04
2023-05-17T14:59:12.523Z,35.07
2023-05-17T15:01:38.957Z,35.73
2023-05-17T15:04:05.531Z,36.11
2023-05-17T15:06:32.346Z,35.56
2023-05-17T15:08:59.294Z,36.21
2023-05-17T15:11:25.826Z,36.02
2023-05-17T15:13:52.843Z,35.58
2023-05-17T15:16:19.596Z,35.22
2023-05-17T15:18:46.198Z,35.62
2023-05-17T15:21:12.892Z,35.96
2023-05-17T15:23:39.422Z,36.94
2023-05-17T15:26:05.950Z,36.36
2023-05-17T15:28:32.635Z,37.76
2023-05-17T15:31:01.323Z,36.59
2023-05-17T15:33:27.953Z,35.00
2023-05-17T15:35:54.525Z,34.79
2023-05-17T15:38:21.052Z,35.77
2023-05-17T15:40:47.622Z,35.50
2023-05-17T15:43:14.079Z,35.96
2023-05-17T15:45:40.534Z,35.73
2023-05-17T15:48:07.345Z,35.24
2023-05-17T15:50:33.770Z,36.99
2023-05-17T15:53:02.308Z,33.88
2023-05-17T15:55:29.484Z,36.59
2023-05-17T15:57:56.228Z,36.55
2023-05-17T16:00:23.240Z,34.35
2023-05-17T16:02:50.025Z,36.13
2023-05-17T16:05:16.838Z,34.27
2023-05-17T16:07:43.372Z,34.60
2023-05-17T16:10:10.042Z,35.46
2023-05-17T16:12:36.484Z,36.34
2023-05-17T16:15:02.985Z,35.10
2023-05-17T16:17:29.510Z,35.47
2023-05-17T16:19:56.195Z,36.38
2023-05-17T16:22:22.708Z,35.99
2023-05-17T16:24:53.601Z,37.29
2023-05-17T16:27:20.205Z,37.02
2023-05-17T16:29:46.651Z,36.43
2023-05-17T16:32:13.172Z,37.09
2023-05-17T16:34:39.657Z,37.23
2023-05-17T16:37:06.168Z,37.90
2023-05-17T16:39:32.957Z,38.67
2023-05-17T16:41:59.466Z,38.24
2023-05-17T16:44:26.158Z,37.54
2023-05-17T16:46:52.686Z,37.18
2023-05-17T16:49:19.229Z,38.65
2023-05-17T16:51:45.755Z,38.99
2023-05-17T16:54:12.299Z,38.52
2023-05-17T16:56:39.116Z,37.69
2023-05-17T16:59:06.013Z,37.89
2023-05-17T17:01:32.581Z,38.60
2023-05-17T17:03:59.213Z,38.54
2023-05-17T17:06:25.822Z,38.41
2023-05-17T17:08:52.315Z,38.53
2023-05-17T17:11:21.759Z,38.45
2023-05-17T17:13:48.916Z,39.54
2023-05-17T17:16:15.475Z,39.43
2023-05-17T17:18:41.986Z,38.73
2023-05-17T17:21:08.482Z,39.95
2023-05-17T17:23:34.912Z,39.56
2023-05-17T17:26:01.377Z,40.05
2023-05-17T17:28:27.842Z,39.49
2023-05-17T17:30:54.341Z,39.40
2023-05-17T17:33:20.870Z,39.75
2023-05-17T17:35:47.357Z,40.13
2023-05-17T17:38:14.434Z,40.76
2023-05-17T17:40:40.898Z,39.62
2023-05-17T17:43:07.359Z,39.38
2023-05-17T17:45:33.800Z,39.31
2023-05-17T17:48:00.500Z,40.71
2023-05-17T17:50:27.118Z,41.39
2023-05-17T17:52:53.815Z,42.27
2023-05-17T17:55:20.288Z,42.46
2023-05-17T17:57:46.763Z,42.18
2023-05-17T18:00:15.896Z,42.10
2023-05-17T18:02:42.466Z,42.43
2023-05-17T18:05:09.797Z,42.42
2023-05-17T18:07:36.435Z,42.25
2023-05-17T18:10:03.675Z,43.54
2023-05-17T18:12:30.298Z,43.63
2023-05-17T18:14:56.770Z,44.40
2023-05-17T18:17:23.485Z,44.37
2023-05-17T18:19:49.938Z,44.82
2023-05-17T18:22:16.880Z,45.50
2023-05-17T18:24:43.534Z,44.38
2023-05-17T18:27:12.877Z,45.30
2023-05-17T18:29:42.145Z,45.29
2023-05-17T18:32:09.422Z,45.15
2023-05-17T18:34:36.355Z,46.00
2023-05-17T18:37:02.981Z,45.65
2023-05-17T18:39:29.454Z,46.35
2023-05-17T18:41:55.913Z,46.02
2023-05-17T18:44:22.378Z,45.90
2023-05-17T18:46:49.560Z,46.98
2023-05-17T18:49:16.843Z,46.90
2023-05-17T18:51:43.659Z,46.56
2023-05-17T18:54:10.139Z,47.04
2023-05-17T18:56:36.953Z,47.65
2023-05-17T18:59:03.404Z,48.19
2023-05-17T19:01:29.907Z,47.72
2023-05-17T19:03:56.741Z,48.09
2023-05-17T19:06:24.099Z,49.18
2023-05-17T19:08:51.145Z,48.75
2023-05-17T19:11:17.872Z,49.23
2023-05-17T19:13:44.627Z,48.81
2023-05-17T19:16:11.125Z,49.04
2023-05-17T19:18:37.564Z,49.05
2023-05-17T19:21:04.244Z,49.56
2023-05-17T19:23:32.127Z,48.42
2023-05-17T19:25:58.865Z,49.01
2023-05-17T19:28:25.536Z,49.02
2023-05-17T19:30:52.074Z,48.99
2023-05-17T19:33:18.460Z,49.05
2023-05-17T19:35:44.918Z,49.38
2023-05-17T19:38:11.351Z,49.74
2023-05-17T19:40:39.197Z,49.78
2023-05-17T19:43:05.757Z,49.23
2023-05-17T19:45:32.300Z,50.20
2023-05-17T19:47:58.924Z,50.47
2023-05-17T19:50:25.551Z,50.83
2023-05-17T19:52:52.304Z,50.80
2023-05-17T19:55:22.160Z,50.35
2023-05-17T19:57:48.866Z,49.64
2023-05-17T20:00:15.678Z,50.21
2023-05-17T20:02:42.281Z,50.37
2023-05-17T20:05:09.158Z,50.78
2023-05-17T20:07:36.018Z,51.92
2023-05-17T20:10:02.509Z,51.25
2023-05-17T20:12:28.969Z,51.58
2023-05-17T20:14:55.367Z,51.56
2023-05-17T20:17:21.790Z,51.15
2023-05-17T20:19:48.286Z,51.37
2023-05-17T20:22:14.730Z,50.55
2023-05-17T20:24:42.547Z,50.86
2023-05-17T20:27:08.981Z,51.35
2023-05-17T20:29:35.602Z,50.29
2023-05-17T20:32:02.140Z,51.29
2023-05-17T20:34:28.656Z,50.89
2023-05-17T20:36:56.266Z,51.55
2023-05-17T20:39:23.716Z,52.43
2023-05-17T20:41:50.215Z,52.07
2023-05-17T20:44:18.759Z,51.46
2023-05-17T20:46:46.093Z,52.25
2023-05-17T20:49:12.522Z,51.54
2023-05-17T20:51:39.239Z,52.44
2023-05-17T20:54:06.283Z,51.65
2023-05-17T20:56:34.962Z,51.54
2023-05-17T20:59:01.585Z,52.27
2023-05-17T21:01:28.035Z,52.59
2023-05-17T21:03:54.715Z,52.62
2023-05-17T21:06:22.256Z,52.27
2023-05-17T21:08:48.724Z,53.11
2023-05-17T21:11:20.865Z,53.96
2023-05-17T21:13:50.599Z,53.33
2023-05-17T21:16:17.567Z,53.62
2023-05-17T21:18:45.107Z,53.10
2023-05-17T21:21:12.457Z,54.04
2023-05-17T21:23:39.243Z,53.95
2023-05-17T21:26:06.491Z,53.69
2023-05-17T21:28:33.432Z,54.14
2023-05-17T21:30:59.995Z,54.36
2023-05-17T21:33:28.149Z,54.37
2023-05-17T21:35:54.820Z,53.55
2023-05-17T21:38:21.279Z,53.69
2023-05-17T21:40:47.714Z,52.98
2023-05-17T21:43:14.262Z,54.22
2023-05-17T21:45:43.499Z,54.52
2023-05-17T21:48:09.978Z,54.12
2023-05-17T21:50:36.553Z,53.36
2023-05-17T21:53:03.051Z,54.96
2023-05-17T21:55:36.467Z,54.96
2023-05-17T21:58:07.538Z,54.94
2023-05-17T22:00:33.948Z,55.75
2023-05-17T22:03:00.464Z,55.85
2023-05-17T22:05:26.946Z,56.01
2023-05-17T22:07:53.374Z,56.21
2023-05-17T22:10:20.623Z,55.47
2023-05-17T22:12:50.112Z,57.06
2023-05-17T22:15:17.195Z,56.83
2023-05-17T22:17:51.819Z,56.33
2023-05-17T22:20:22.864Z,56.69
2023-05-17T22:22:49.527Z,56.43
2023-05-17T22:25:17.644Z,57.38
2023-05-17T22:27:45.308Z,56.67
2023-05-17T22:30:11.933Z,56.47
2023-05-17T22:32:38.409Z,56.78
2023-05-17T22:35:05.644Z,56.16
2023-05-17T22:37:32.803Z,56.27
2023-05-17T22:39:59.336Z,56.24
2023-05-17T22:42:25.965Z,56.97
2023-05-17T22:44:52.421Z,56.87
2023-05-17T22:47:22.657Z,56.54
2023-05-17T22:49:52.333Z,57.11
2023-05-17T22:52:19.009Z,57.69
2023-05-17T22:54:45.551Z,57.54
2023-05-17T22:57:12.107Z,57.52
2023-05-17T22:59:38.637Z,58.03
2023-05-17T23:02:05.247Z,57.78
2023-05-17T23:04:31.790Z,58.44
2023-05-17T23:07:03.891Z,58.56
2023-05-17T23:09:30.714Z,59.29
2023-05-17T23:11:59.352Z,59.08
2023-05-17T23:14:25.909Z,58.88
2023-05-17T23:16:52.409Z,59.00
2023-05-17T23:19:19.029Z,58.94
2023-05-17T23:21:46.225Z,59.56
2023-05-17T23:24:13.962Z,59.79
2023-05-17T23:26:41.232Z,59.39
2023-05-17T23:29:07.649Z,59.06
2023-05-17T23:31:34.198Z,59.82
2023-05-17T23:34:00.752Z,59.42
2023-05-17T23:36:27.253Z,60.07
2023-05-17T23:38:53.649Z,59.34
2023-05-17T23:41:23.776Z,59.51
2023-05-17T23:43:50.456Z,59.45
2023-05-17T23:46:19.631Z,59.62
2023-05-17T23:48:50.394Z,59.40
2023-05-17T23:51:18.818Z,59.70
2023-05-17T23:53:48.621Z,59.58
2023-05-17T23:56:17.072Z,59.16
2023-05-17T23:58:44.261Z,60.13
